Time;durP1;ratioP1;P1;durP2;ratioP2;P2;SDS_P1;SDS_P2;PMS_P1;PMS_P2;Temp;Humidity;BMP_temperature;BMP_pressure;BME280_temperature;BME280_humidity;BME280_pressure;Samples;Min_cycle;Max_cycle;Signal;HPM_P1;HPM_P2
2021/08/21 00:01:17;;;;;;;7.53;6.90;;;19.60;99.90;;;;;;5054978;28;20475;-61
2021/08/21 00:03:44;;;;;;;8.10;7.40;;;19.60;99.90;;;;;;5054653;28;20532;-61
2021/08/21 00:06:12;;;;;;;7.57;6.87;;;19.60;99.90;;;;;;5054790;28;20507;-62
2021/08/21 00:08:39;;;;;;;9.13;8.27;;;19.60;99.90;;;;;;5054619;28;20479;-62
2021/08/21 00:11:05;;;;;;;8.40;7.70;;;19.60;99.90;;;;;;5055084;28;20525;-61
2021/08/21 00:13:32;;;;;;;9.70;8.90;;;19.60;99.90;;;;;;5054367;28;20521;-61
2021/08/21 00:15:59;;;;;;;7.33;6.77;;;19.60;99.90;;;;;;5056365;28;20462;-61
2021/08/21 00:18:25;;;;;;;7.97;7.27;;;19.60;99.90;;;;;;5054347;28;20868;-61
2021/08/21 00:20:52;;;;;;;7.70;7.03;;;19.60;99.90;;;;;;5054866;28;20520;-61
2021/08/21 00:23:20;;;;;;;7.80;7.20;;;19.60;99.90;;;;;;5054677;28;20957;-62
2021/08/21 00:25:46;;;;;;;6.97;6.47;;;19.60;99.90;;;;;;5054071;28;20471;-62
2021/08/21 00:28:13;;;;;;;7.67;7.07;;;19.60;99.90;;;;;;5054492;28;20467;-61
2021/08/21 00:30:40;;;;;;;7.97;7.27;;;19.60;99.90;;;;;;5054282;28;20471;-61
2021/08/21 00:33:06;;;;;;;8.30;7.50;;;19.60;99.90;;;;;;5048408;28;20472;-61
2021/08/21 00:35:33;;;;;;;9.70;8.97;;;19.60;99.90;;;;;;5051355;28;20803;-61
2021/08/21 00:38:00;;;;;;;8.70;7.80;;;19.60;99.90;;;;;;5054556;28;20621;-62
2021/08/21 00:40:28;;;;;;;8.33;7.63;;;19.60;99.90;;;;;;5053759;28;20467;-61
2021/08/21 00:42:55;;;;;;;7.80;7.10;;;19.60;99.90;;;;;;5054501;28;20497;-61
2021/08/21 00:45:22;;;;;;;7.63;6.90;;;19.60;99.90;;;;;;5054360;28;20470;-61
2021/08/21 00:47:49;;;;;;;8.77;8.13;;;19.60;99.90;;;;;;5053873;28;20459;-61
2021/08/21 00:50:15;;;;;;;8.73;7.83;;;19.60;99.90;;;;;;5054326;28;20517;-61
2021/08/21 00:52:42;;;;;;;7.40;6.80;;;19.60;99.90;;;;;;5053977;28;20475;-62
2021/08/21 00:55:10;;;;;;;6.97;6.37;;;19.60;99.90;;;;;;5054081;28;20551;-61
2021/08/21 00:57:38;;;;;;;7.50;6.80;;;19.60;99.90;;;;;;5054022;28;20542;-61
2021/08/21 01:00:07;;;;;;;7.73;7.03;;;19.60;99.90;;;;;;5053810;28;20521;-61
2021/08/21 01:02:34;;;;;;;9.30;8.40;;;19.50;99.90;;;;;;5053729;28;20471;-62
2021/08/21 01:05:03;;;;;;;8.53;7.77;;;19.50;99.90;;;;;;5054207;28;20524;-61
2021/08/21 01:07:33;;;;;;;9.30;8.57;;;19.50;99.90;;;;;;5053412;28;20501;-61
2021/08/21 01:10:01;;;;;;;7.77;7.17;;;19.50;99.90;;;;;;5053890;28;20467;-61
2021/08/21 01:12:28;;;;;;;8.60;7.90;;;19.50;99.90;;;;;;5053280;28;20466;-61
2021/08/21 01:14:56;;;;;;;7.67;7.03;;;19.50;99.90;;;;;;5053715;28;20855;-61
2021/08/21 01:17:23;;;;;;;8.37;7.67;;;19.50;99.90;;;;;;5053660;28;20856;-61
2021/08/21 01:19:51;;;;;;;7.63;7.00;;;19.50;99.90;;;;;;5053070;28;20536;-61
2021/08/21 01:22:21;;;;;;;7.97;7.37;;;19.50;99.90;;;;;;5053621;28;20471;-61
2021/08/21 01:24:50;;;;;;;7.93;7.20;;;19.50;99.90;;;;;;5053240;28;20454;-61
2021/08/21 01:27:19;;;;;;;7.80;7.10;;;19.50;99.90;;;;;;5049999;28;20464;-62
2021/08/21 01:29:46;;;;;;;7.87;7.27;;;19.50;99.90;;;;;;5052954;28;20475;-61
2021/08/21 01:32:13;;;;;;;9.20;8.33;;;19.50;99.90;;;;;;5053477;28;20463;-61
2021/08/21 01:34:40;;;;;;;13.00;11.80;;;19.50;99.90;;;;;;5039172;28;20529;-61
2021/08/21 01:37:07;;;;;;;9.57;8.80;;;19.60;99.90;;;;;;5053579;28;20931;-61
2021/08/21 01:39:33;;;;;;;9.50;8.70;;;19.50;99.90;;;;;;5049541;28;20853;-61
2021/08/21 01:42:00;;;;;;;9.50;8.73;;;19.50;99.90;;;;;;5045123;28;20520;-61
2021/08/21 01:44:29;;;;;;;8.67;8.07;;;19.50;99.90;;;;;;5052419;28;20532;-61
2021/08/21 01:46:55;;;;;;;8.60;7.90;;;19.50;99.90;;;;;;5052978;28;20520;-61
2021/08/21 01:49:24;;;;;;;9.67;8.97;;;19.50;99.90;;;;;;5053190;28;20548;-61
2021/08/21 01:51:52;;;;;;;9.90;9.00;;;19.50;99.90;;;;;;5052578;28;20467;-61
2021/08/21 01:54:19;;;;;;;10.37;9.50;;;19.50;99.90;;;;;;5053009;28;20471;-61
2021/08/21 01:56:47;;;;;;;10.17;9.33;;;19.50;99.90;;;;;;5052829;28;20856;-61
2021/08/21 01:59:19;;;;;;;8.57;7.90;;;19.50;99.90;;;;;;5052926;28;20471;-61
2021/08/21 02:01:47;;;;;;;8.87;7.97;;;19.50;99.90;;;;;;5046253;28;20541;-61
2021/08/21 02:04:14;;;;;;;10.93;9.80;;;19.50;99.90;;;;;;5052920;28;20467;-61
2021/08/21 02:06:42;;;;;;;9.00;8.30;;;19.50;99.90;;;;;;5052473;28;20483;-61
2021/08/21 02:09:09;;;;;;;10.63;9.63;;;19.50;99.90;;;;;;5052793;28;20471;-61
2021/08/21 02:11:35;;;;;;;9.30;8.50;;;19.50;99.90;;;;;;5052584;28;20467;-61
2021/08/21 02:14:02;;;;;;;9.30;8.53;;;19.50;99.90;;;;;;5052688;28;20534;-60
2021/08/21 02:16:28;;;;;;;7.43;6.80;;;19.40;99.90;;;;;;5059125;28;20497;-62
2021/08/21 02:18:57;;;;;;;8.23;7.43;;;19.40;99.90;;;;;;5052031;28;20475;-61
2021/08/21 02:21:24;;;;;;;8.23;7.63;;;19.40;99.90;;;;;;5052669;28;20546;-61
2021/08/21 02:23:51;;;;;;;7.97;7.33;;;19.40;99.90;;;;;;5052265;28;20550;-61
2021/08/21 02:26:18;;;;;;;8.13;7.33;;;19.40;99.90;;;;;;5052589;28;20558;-61
2021/08/21 02:28:45;;;;;;;7.63;7.00;;;19.40;99.90;;;;;;5051888;28;20537;-61
2021/08/21 02:31:11;;;;;;;8.07;7.43;;;19.40;99.90;;;;;;5052727;28;20843;-61
2021/08/21 02:33:38;;;;;;;8.30;7.60;;;19.40;99.90;;;;;;5041823;28;20472;-61
2021/08/21 02:36:06;;;;;;;8.17;7.57;;;19.40;99.90;;;;;;5046738;28;20463;-61
2021/08/21 02:38:33;;;;;;;8.60;7.90;;;19.40;99.90;;;;;;5052562;28;20537;-61
2021/08/21 02:41:00;;;;;;;8.13;7.43;;;19.40;99.90;;;;;;5040053;28;20953;-61
2021/08/21 02:43:26;;;;;;;8.30;7.60;;;19.40;99.90;;;;;;5052180;28;20479;-61
2021/08/21 02:45:53;;;;;;;7.97;7.37;;;19.40;99.90;;;;;;5052049;28;20542;-61
2021/08/21 02:48:20;;;;;;;7.10;6.57;;;19.40;99.90;;;;;;5052267;28;20463;-61
2021/08/21 02:50:46;;;;;;;8.03;7.33;;;19.40;99.90;;;;;;5052038;28;20471;-61
2021/08/21 02:53:14;;;;;;;7.93;7.23;;;19.40;99.90;;;;;;5045833;28;20961;-61
2021/08/21 02:55:41;;;;;;;8.90;8.20;;;19.30;99.90;;;;;;5048636;28;20475;-61
2021/08/21 02:58:07;;;;;;;8.00;7.40;;;19.30;99.90;;;;;;5056606;28;20467;-60
2021/08/21 03:00:34;;;;;;;10.23;9.23;;;19.30;99.90;;;;;;5056204;28;20470;-61
2021/08/21 03:03:01;;;;;;;9.37;8.13;;;19.30;99.90;;;;;;5055935;28;20524;-61
2021/08/21 03:05:27;;;;;;;9.27;8.47;;;19.30;99.90;;;;;;5056405;28;20467;-61
2021/08/21 03:07:54;;;;;;;9.83;9.00;;;19.30;99.90;;;;;;5055651;28;20479;-61
2021/08/21 03:10:22;;;;;;;9.17;8.37;;;19.30;99.90;;;;;;5056149;28;20868;-61
2021/08/21 03:12:49;;;;;;;10.00;9.20;;;19.20;99.90;;;;;;5055892;28;20459;-61
2021/08/21 03:15:16;;;;;;;8.83;8.03;;;19.20;99.90;;;;;;5055986;28;20475;-61
2021/08/21 03:17:42;;;;;;;10.83;9.97;;;19.20;99.90;;;;;;5047057;28;20533;-62
2021/08/21 03:20:10;;;;;;;10.50;9.60;;;19.10;99.90;;;;;;5055926;28;20953;-61
2021/08/21 03:22:37;;;;;;;7.90;7.20;;;19.10;99.90;;;;;;5055833;28;20873;-61
2021/08/21 03:25:04;;;;;;;10.87;10.03;;;19.10;99.90;;;;;;5055676;28;20944;-61
2021/08/21 03:27:32;;;;;;;9.53;8.80;;;19.10;99.90;;;;;;5055715;28;20467;-61
2021/08/21 03:29:59;;;;;;;9.40;8.40;;;19.10;99.90;;;;;;5055216;28;20529;-61
2021/08/21 03:32:26;;;;;;;10.57;9.60;;;19.10;99.90;;;;;;5055297;28;20471;-61
2021/08/21 03:34:52;;;;;;;9.53;8.73;;;19.00;99.90;;;;;;5042428;28;20512;-61
2021/08/21 03:37:19;;;;;;;9.43;8.53;;;19.00;99.90;;;;;;5055767;28;20475;-61
2021/08/21 03:39:45;;;;;;;11.07;10.07;;;19.00;99.90;;;;;;5055013;28;20483;-61
2021/08/21 03:42:12;;;;;;;10.17;9.27;;;19.00;99.90;;;;;;5055614;28;20525;-61
2021/08/21 03:44:40;;;;;;;11.10;10.20;;;18.90;99.90;;;;;;5055307;28;20918;-61
2021/08/21 03:47:07;;;;;;;8.90;8.20;;;18.90;99.90;;;;;;5050311;28;20459;-61
2021/08/21 03:49:33;;;;;;;10.53;9.63;;;18.90;99.90;;;;;;5055490;28;20965;-61
2021/08/21 03:52:00;;;;;;;10.20;9.40;;;18.90;99.90;;;;;;5054874;28;20471;-61
2021/08/21 03:54:26;;;;;;;11.30;10.30;;;18.90;99.90;;;;;;5055437;28;20536;-61
2021/08/21 03:56:53;;;;;;;9.63;8.90;;;18.90;99.90;;;;;;5054904;28;20612;-61
2021/08/21 03:59:20;;;;;;;11.07;10.07;;;18.90;99.90;;;;;;5055147;28;20525;-61
2021/08/21 04:01:48;;;;;;;11.77;10.77;;;18.90;99.90;;;;;;5054981;28;20471;-61
2021/08/21 04:04:14;;;;;;;11.20;10.20;;;18.90;99.90;;;;;;5055183;28;20459;-60
2021/08/21 04:06:42;;;;;;;11.53;10.43;;;18.90;99.90;;;;;;5054639;28;20526;-60
2021/08/21 04:09:08;;;;;;;13.83;12.63;;;18.90;99.90;;;;;;5054679;28;20514;-61
2021/08/21 04:11:35;;;;;;;11.90;10.90;;;18.80;99.90;;;;;;5054890;28;20949;-61
2021/08/21 04:14:02;;;;;;;12.17;11.17;;;18.80;99.90;;;;;;5054598;28;20852;-60
2021/08/21 04:16:28;;;;;;;12.63;11.47;;;18.80;99.90;;;;;;5051881;28;20501;-61
2021/08/21 04:18:56;;;;;;;12.03;10.97;;;18.80;99.90;;;;;;5054474;28;20505;-62
2021/08/21 04:21:23;;;;;;;11.60;10.60;;;18.80;99.90;;;;;;5054897;28;20525;-61
2021/08/21 04:23:52;;;;;;;12.13;10.93;;;18.80;99.90;;;;;;5054550;28;20474;-61
2021/08/21 04:26:19;;;;;;;12.63;11.40;;;18.90;99.90;;;;;;5054617;28;20532;-61
2021/08/21 04:28:46;;;;;;;13.70;12.60;;;18.90;99.90;;;;;;5050729;28;20467;-62
2021/08/21 04:31:12;;;;;;;16.33;14.23;;;18.80;99.90;;;;;;5054387;28;20470;-61
2021/08/21 04:33:39;;;;;;;13.33;12.07;;;18.80;99.90;;;;;;5044187;28;20460;-61
2021/08/21 04:36:07;;;;;;;15.90;14.50;;;18.80;99.90;;;;;;5048578;28;20459;-61
2021/08/21 04:38:34;;;;;;;13.90;12.60;;;18.80;99.90;;;;;;5047243;28;20552;-61
2021/08/21 04:41:00;;;;;;;15.33;13.93;;;18.80;99.90;;;;;;5051355;28;20541;-61
2021/08/21 04:43:27;;;;;;;14.90;13.57;;;18.80;99.90;;;;;;5054241;28;20483;-61
2021/08/21 04:45:53;;;;;;;15.67;14.07;;;18.80;99.90;;;;;;5053023;28;20517;-61
2021/08/21 04:48:20;;;;;;;14.73;13.53;;;18.80;99.90;;;;;;5054543;28;20467;-61
2021/08/21 04:50:47;;;;;;;14.67;13.37;;;18.80;99.90;;;;;;5053908;28;20877;-60
2021/08/21 04:53:15;;;;;;;13.37;12.20;;;18.80;99.90;;;;;;5055799;28;20528;-60
2021/08/21 04:55:41;;;;;;;15.47;13.50;;;18.90;99.90;;;;;;5049905;28;20472;-61
2021/08/21 04:58:08;;;;;;;13.90;12.70;;;18.90;99.90;;;;;;5045108;28;20494;-61
2021/08/21 05:00:35;;;;;;;15.20;13.60;;;18.90;99.90;;;;;;5054018;28;20513;-61
2021/08/21 05:03:01;;;;;;;12.77;11.67;;;18.90;99.90;;;;;;5053743;28;20529;-61
2021/08/21 05:05:28;;;;;;;13.07;11.87;;;18.90;99.90;;;;;;5053946;28;20867;-61
2021/08/21 05:07:55;;;;;;;16.17;14.50;;;18.90;99.90;;;;;;5045070;28;20479;-61
2021/08/21 05:10:23;;;;;;;17.73;15.60;;;19.00;99.90;;;;;;5051956;28;20545;-61
2021/08/21 05:12:49;;;;;;;14.50;13.20;;;19.00;99.90;;;;;;5046662;28;20863;-60
2021/08/21 05:15:16;;;;;;;13.33;12.03;;;19.00;99.90;;;;;;5032483;28;20549;-61
2021/08/21 05:17:43;;;;;;;12.57;11.47;;;19.00;99.90;;;;;;5050666;28;20459;-61
2021/08/21 05:20:15;;;;;;;13.17;12.03;;;19.00;99.90;;;;;;5051804;28;20545;-61
2021/08/21 05:22:58;;;;;;;14.90;13.47;;;19.00;99.90;;;;;;5046267;28;20463;-61
2021/08/21 05:25:26;;;;;;;12.17;11.17;;;19.10;99.90;;;;;;5048113;28;20455;-60
2021/08/21 05:27:53;;;;;;;12.00;11.00;;;19.10;99.90;;;;;;5050503;28;20463;-60
2021/08/21 05:30:19;;;;;;;14.53;13.33;;;19.10;99.90;;;;;;5042053;28;20468;-61
2021/08/21 05:32:46;;;;;;;12.80;11.70;;;19.10;99.90;;;;;;5050827;28;21047;-61
2021/08/21 05:35:13;;;;;;;10.53;9.67;;;19.20;99.90;;;;;;5041831;28;20468;-61
2021/08/21 05:37:39;;;;;;;13.10;11.80;;;19.20;99.90;;;;;;5051389;28;20459;-61
2021/08/21 05:40:07;;;;;;;13.57;12.37;;;19.20;99.90;;;;;;5044623;28;20463;-62
2021/08/21 05:42:36;;;;;;;11.97;10.73;;;19.20;99.90;;;;;;5051899;28;20509;-61
2021/08/21 05:45:03;;;;;;;11.47;10.47;;;19.20;99.90;;;;;;5053046;28;20505;-61
2021/08/21 05:47:30;;;;;;;12.77;11.57;;;19.20;99.90;;;;;;5053462;28;20475;-61
2021/08/21 05:50:00;;;;;;;13.40;12.20;;;19.30;99.90;;;;;;5053023;28;20544;-61
2021/08/21 05:52:27;;;;;;;12.57;11.53;;;19.30;99.90;;;;;;5053216;28;20470;-61
2021/08/21 05:54:54;;;;;;;11.30;10.20;;;19.30;99.90;;;;;;5053001;28;20463;-61
2021/08/21 05:57:20;;;;;;;12.20;11.10;;;19.40;99.90;;;;;;5053277;28;20524;-61
2021/08/21 05:59:48;;;;;;;13.10;12.00;;;19.40;99.90;;;;;;5052602;28;20546;-61
2021/08/21 06:02:15;;;;;;;11.60;10.40;;;19.40;99.90;;;;;;5053471;28;20525;-61
2021/08/21 06:04:41;;;;;;;12.13;11.07;;;19.50;99.90;;;;;;5052939;28;20852;-61
2021/08/21 06:07:08;;;;;;;10.97;10.07;;;19.50;99.90;;;;;;5053223;28;20525;-61
2021/08/21 06:09:34;;;;;;;12.10;10.83;;;19.50;99.90;;;;;;5052787;28;20463;-61
2021/08/21 06:12:01;;;;;;;11.80;10.70;;;19.60;99.90;;;;;;5050641;28;20542;-61
2021/08/21 06:14:28;;;;;;;10.33;9.33;;;19.60;99.90;;;;;;5033008;28;20468;-61
2021/08/21 06:16:56;;;;;;;10.97;9.97;;;19.60;99.90;;;;;;5032638;28;20456;-61
2021/08/21 06:19:22;;;;;;;13.00;11.40;;;19.60;99.90;;;;;;5033071;28;20476;-62
2021/08/21 06:21:49;;;;;;;10.30;9.40;;;19.60;99.90;;;;;;5032613;28;20510;-62
2021/08/21 06:24:15;;;;;;;12.10;10.97;;;19.70;99.90;;;;;;5033066;28;20479;-60
2021/08/21 06:26:42;;;;;;;11.73;10.83;;;19.80;99.90;;;;;;5032529;28;20530;-61
2021/08/21 06:29:09;;;;;;;11.63;10.47;;;19.80;99.90;;;;;;5052447;28;20478;-62
2021/08/21 06:31:35;;;;;;;11.73;10.63;;;19.80;99.90;;;;;;5052347;28;20544;-61
2021/08/21 06:34:03;;;;;;;10.40;9.37;;;19.90;99.90;;;;;;5052802;28;20517;-62
2021/08/21 06:36:30;;;;;;;12.73;11.53;;;19.90;99.90;;;;;;5052935;28;20468;-61
2021/08/21 06:38:56;;;;;;;16.37;11.83;;;20.00;99.90;;;;;;5052326;28;20937;-61
2021/08/21 06:41:23;;;;;;;10.67;9.80;;;20.00;99.90;;;;;;5052659;28;20471;-61
2021/08/21 06:43:50;;;;;;;13.67;12.20;;;20.10;99.90;;;;;;5052136;28;20475;-62
2021/08/21 06:46:17;;;;;;;12.30;11.17;;;20.20;99.90;;;;;;5052636;28;20783;-60
2021/08/21 06:48:43;;;;;;;11.60;10.50;;;20.30;99.90;;;;;;5052160;28;20467;-61
2021/08/21 06:51:11;;;;;;;13.87;12.67;;;20.30;99.90;;;;;;5052898;28;20525;-60
2021/08/21 06:53:38;;;;;;;11.40;10.40;;;20.40;99.90;;;;;;5052306;28;20536;-62
2021/08/21 06:56:05;;;;;;;11.07;10.00;;;20.50;99.90;;;;;;5052568;28;20482;-61
2021/08/21 06:58:32;;;;;;;10.63;9.60;;;20.60;99.90;;;;;;5049060;28;20527;-61
2021/08/21 07:00:58;;;;;;;10.40;9.50;;;20.60;99.90;;;;;;5045636;28;20471;-61
2021/08/21 07:03:25;;;;;;;12.30;11.10;;;20.70;99.90;;;;;;5052735;28;20498;-61
2021/08/21 07:05:52;;;;;;;10.90;10.00;;;20.70;99.90;;;;;;5052092;28;20463;-61
2021/08/21 07:08:20;;;;;;;11.07;10.03;;;20.80;99.90;;;;;;5052261;28;20463;-61
2021/08/21 07:10:46;;;;;;;8.87;8.17;;;20.90;99.90;;;;;;5052051;28;20946;-61
2021/08/21 07:13:13;;;;;;;10.90;9.53;;;21.00;99.90;;;;;;5040274;28;20488;-61
2021/08/21 07:15:39;;;;;;;10.83;9.83;;;21.10;99.90;;;;;;5032101;28;20472;-61
2021/08/21 07:18:06;;;;;;;11.70;10.50;;;21.10;99.90;;;;;;5032472;28;20472;-61
2021/08/21 07:20:33;;;;;;;9.10;8.30;;;21.20;99.90;;;;;;5032463;28;21056;-61
2021/08/21 07:22:59;;;;;;;9.17;8.10;;;21.30;99.90;;;;;;5032125;28;20468;-61
2021/08/21 07:25:27;;;;;;;9.67;8.77;;;21.30;99.90;;;;;;5032417;28;20472;-61
2021/08/21 07:27:54;;;;;;;8.20;7.47;;;21.40;99.90;;;;;;5031770;28;20522;-61
2021/08/21 07:30:21;;;;;;;11.30;10.30;;;21.50;99.90;;;;;;5032331;28;20468;-61
2021/08/21 07:32:47;;;;;;;12.87;10.33;;;21.50;99.90;;;;;;5031915;28;20468;-61
2021/08/21 07:35:14;;;;;;;8.13;7.43;;;21.50;99.90;;;;;;5032474;28;20527;-62
2021/08/21 07:37:40;;;;;;;10.43;9.23;;;21.60;99.90;;;;;;5031871;28;20472;-60
2021/08/21 07:40:09;;;;;;;7.47;6.77;;;21.60;99.90;;;;;;5031307;28;20542;-61
2021/08/21 07:42:36;;;;;;;7.27;6.57;;;21.60;99.90;;;;;;5033781;28;20885;-61
2021/08/21 07:45:04;;;;;;;9.50;8.70;;;21.60;99.90;;;;;;5035438;28;20518;-61
2021/08/21 07:47:30;;;;;;;8.23;7.53;;;21.60;99.90;;;;;;5035850;28;20865;-61
2021/08/21 07:49:57;;;;;;;9.13;8.33;;;21.60;99.90;;;;;;5035286;28;20464;-61
2021/08/21 07:52:23;;;;;;;8.53;7.83;;;21.70;99.90;;;;;;5035776;28;20464;-61
2021/08/21 07:54:50;;;;;;;9.20;8.30;;;21.80;99.90;;;;;;5035377;28;20853;-62
2021/08/21 07:57:17;;;;;;;9.97;9.07;;;21.90;99.90;;;;;;5035895;28;20464;-61
2021/08/21 07:59:45;;;;;;;8.40;7.60;;;21.90;99.90;;;;;;5047921;28;20471;-61
2021/08/21 08:02:12;;;;;;;7.23;6.53;;;22.00;99.90;;;;;;5055528;28;20475;-61
2021/08/21 08:04:39;;;;;;;5.53;5.13;;;21.90;99.90;;;;;;5055420;28;21056;-61
2021/08/21 08:07:06;;;;;;;7.90;7.20;;;22.00;99.90;;;;;;5055055;28;20467;-61
2021/08/21 08:09:32;;;;;;;6.67;6.17;;;22.00;99.90;;;;;;5055095;28;20786;-61
2021/08/21 08:11:59;;;;;;;8.57;7.77;;;22.00;99.90;;;;;;5052872;28;20471;-62
2021/08/21 08:14:25;;;;;;;9.77;7.73;;;22.00;99.90;;;;;;5034614;28;20526;-62
2021/08/21 08:16:53;;;;;;;6.53;5.90;;;22.10;99.90;;;;;;5034799;28;20541;-61
2021/08/21 08:19:20;;;;;;;6.43;5.93;;;22.10;99.90;;;;;;5035262;28;20522;-61
2021/08/21 08:21:46;;;;;;;6.80;6.20;;;22.20;99.90;;;;;;5034797;28;21092;-61
2021/08/21 08:24:14;;;;;;;7.33;6.63;;;22.20;99.90;;;;;;5035093;28;20483;-60
2021/08/21 08:26:40;;;;;;;5.83;5.40;;;22.30;99.90;;;;;;5035284;28;20522;-61
2021/08/21 08:29:07;;;;;;;7.30;6.30;;;22.30;99.90;;;;;;5034137;28;20530;-60
2021/08/21 08:31:33;;;;;;;7.83;7.03;;;22.40;99.90;;;;;;5035010;28;20464;-60
2021/08/21 08:34:01;;;;;;;6.00;5.40;;;22.40;99.90;;;;;;5034680;28;20472;-60
2021/08/21 08:36:28;;;;;;;6.50;6.00;;;22.50;99.90;;;;;;5034752;28;20468;-61
2021/08/21 08:38:54;;;;;;;7.23;6.63;;;22.60;99.90;;;;;;5034510;28;20526;-62
2021/08/21 08:41:23;;;;;;;5.90;5.40;;;22.70;99.90;;;;;;5035065;28;20460;-61
2021/08/21 08:43:50;;;;;;;7.97;7.20;;;22.80;99.90;;;;;;5034130;28;20962;-61
2021/08/21 08:46:18;;;;;;;8.53;6.30;;;22.80;99.90;;;;;;5034930;28;20683;-62
2021/08/21 08:48:46;;;;;;;6.30;5.70;;;22.90;99.90;;;;;;5034151;28;20499;-62
2021/08/21 08:51:15;;;;;;;6.07;5.47;;;23.00;99.90;;;;;;5034733;28;20467;-61
2021/08/21 08:53:42;;;;;;;5.50;4.80;;;23.00;99.80;;;;;;5034610;28;20479;-62
2021/08/21 08:56:09;;;;;;;7.00;6.37;;;23.20;99.90;;;;;;5034351;28;20460;-62
2021/08/21 08:58:37;;;;;;;6.27;5.67;;;23.30;99.80;;;;;;5034382;28;20472;-62
2021/08/21 09:01:04;;;;;;;5.33;4.93;;;23.40;99.20;;;;;;5048294;28;20470;-62
2021/08/21 09:03:32;;;;;;;5.67;4.80;;;23.50;98.60;;;;;;5054191;28;20468;-61
2021/08/21 09:05:59;;;;;;;5.13;4.73;;;23.50;98.60;;;;;;5053712;28;21015;-61
2021/08/21 09:08:29;;;;;;;5.17;4.77;;;23.50;98.40;;;;;;5054218;28;20471;-61
2021/08/21 09:10:58;;;;;;;5.03;4.60;;;23.50;98.30;;;;;;5053793;28;20467;-61
2021/08/21 09:13:25;;;;;;;6.03;5.53;;;23.40;98.30;;;;;;5053990;28;20879;-62
2021/08/21 09:15:54;;;;;;;5.93;5.43;;;23.50;98.30;;;;;;5053669;28;20533;-61
2021/08/21 09:18:23;;;;;;;4.70;4.30;;;23.40;98.20;;;;;;5053945;28;20471;-61
2021/08/21 09:20:58;;;;;;;7.40;6.70;;;23.40;98.20;;;;;;5053762;28;20475;-61
2021/08/21 09:23:29;;;;;;;6.00;5.60;;;23.40;98.40;;;;;;5054123;28;20471;-61
2021/08/21 09:26:04;;;;;;;6.37;5.30;;;23.40;98.30;;;;;;5053580;28;20471;-62
2021/08/21 09:28:31;;;;;;;5.90;5.30;;;23.40;98.00;;;;;;5053652;28;20471;-61
2021/08/21 09:31:03;;;;;;;6.10;5.50;;;23.40;98.10;;;;;;5053369;28;20504;-61
2021/08/21 09:33:30;;;;;;;5.87;5.37;;;23.40;98.20;;;;;;5053926;28;20475;-61
2021/08/21 09:35:57;;;;;;;5.93;5.50;;;23.50;98.10;;;;;;5053360;28;20471;-61
2021/08/21 09:38:27;;;;;;;5.60;5.10;;;23.50;98.20;;;;;;5053680;28;20475;-61
2021/08/21 09:41:01;;;;;;;5.10;4.77;;;23.50;98.10;;;;;;5053252;28;20529;-61
2021/08/21 09:43:32;;;;;;;4.67;4.27;;;23.50;98.10;;;;;;5051154;28;20490;-61
2021/08/21 09:46:10;;;;;;;6.07;5.57;;;23.50;98.20;;;;;;5050698;28;20490;-62
2021/08/21 09:48:55;;;;;;;8.57;7.87;;;23.60;97.80;;;;;;5052914;28;20957;-62
2021/08/21 09:51:30;;;;;;;7.47;6.30;;;23.70;97.40;;;;;;5053006;28;20451;-61
2021/08/21 09:53:59;;;;;;;7.47;6.87;;;23.70;97.10;;;;;;5048190;28;20848;-62
2021/08/21 09:56:32;;;;;;;6.20;5.70;;;23.70;97.10;;;;;;5053075;28;20455;-62
2021/08/21 09:58:59;;;;;;;5.50;5.10;;;23.70;97.10;;;;;;5052328;28;20460;-62
2021/08/21 10:01:27;;;;;;;9.40;8.30;;;23.70;97.30;;;;;;5052599;28;20770;-62
2021/08/21 10:03:54;;;;;;;7.13;6.63;;;23.70;97.30;;;;;;5053257;28;20467;-62
2021/08/21 10:06:21;;;;;;;5.83;5.23;;;23.70;97.20;;;;;;5052435;28;20521;-61
2021/08/21 10:08:49;;;;;;;5.70;5.20;;;23.70;97.40;;;;;;5052886;28;20459;-61
2021/08/21 10:11:16;;;;;;;7.87;6.97;;;23.70;97.50;;;;;;5052496;28;20550;-61
2021/08/21 10:13:45;;;;;;;7.63;6.43;;;23.70;97.70;;;;;;5052879;28;21045;-62
2021/08/21 10:16:13;;;;;;;6.77;6.17;;;23.80;97.40;;;;;;5052612;28;20467;-62
2021/08/21 10:18:41;;;;;;;6.97;6.27;;;23.80;97.40;;;;;;5052921;28;21026;-63
2021/08/21 10:21:08;;;;;;;6.07;5.23;;;23.80;97.50;;;;;;5052524;28;20467;-61
2021/08/21 10:23:35;;;;;;;6.10;5.13;;;23.80;97.40;;;;;;5053050;28;20973;-62
2021/08/21 10:26:04;;;;;;;6.00;5.57;;;23.90;97.30;;;;;;5052784;28;21031;-62
2021/08/21 10:28:34;;;;;;;4.97;4.50;;;23.90;96.30;;;;;;5037727;28;21585;-61
2021/08/21 10:31:02;;;;;;;4.97;4.47;;;23.90;96.40;;;;;;5032814;28;20538;-62
2021/08/21 10:33:31;;;;;;;4.23;3.93;;;24.00;96.40;;;;;;5032483;28;20861;-62
2021/08/21 10:35:59;;;;;;;5.10;4.80;;;24.00;96.00;;;;;;5032720;28;20986;-62
2021/08/21 10:38:36;;;;;;;5.73;5.10;;;24.00;95.90;;;;;;5031918;28;20946;-61
2021/08/21 10:41:35;;;;;;;5.30;4.80;;;24.00;95.90;;;;;;5032785;28;20997;-62
2021/08/21 10:44:01;;;;;;;6.40;5.90;;;24.00;95.60;;;;;;5032296;28;20810;-62
2021/08/21 10:46:52;;;;;;;10.97;7.33;;;24.10;95.80;;;;;;5032704;28;20464;-61
2021/08/21 10:49:49;;;;;;;6.00;5.50;;;24.10;95.60;;;;;;5032361;28;20470;-62
2021/08/21 10:52:48;;;;;;;6.10;5.30;;;24.10;95.90;;;;;;5032260;28;20468;-62
2021/08/21 10:55:18;;;;;;;4.90;4.50;;;24.10;95.40;;;;;;5032256;28;21020;-62
2021/08/21 10:58:12;;;;;;;5.80;4.60;;;24.20;95.30;;;;;;5032542;28;20533;-62
2021/08/21 11:00:56;;;;;;;3.37;3.07;;;24.20;95.20;;;;;;5043231;28;20544;-61
2021/08/21 11:03:44;;;;;;;4.03;3.63;;;24.30;94.90;;;;;;5052592;28;20471;-60
2021/08/21 11:06:14;;;;;;;4.03;3.80;;;24.30;95.00;;;;;;5052309;28;20957;-61
2021/08/21 11:09:03;;;;;;;6.20;5.60;;;24.40;95.50;;;;;;5050227;28;20463;-61
2021/08/21 11:11:35;;;;;;;5.23;4.73;;;24.50;95.20;;;;;;5052086;28;20564;-61
2021/08/21 11:14:04;;;;;;;4.40;4.07;;;24.50;94.80;;;;;;5052196;28;20473;-62
2021/08/21 11:16:50;;;;;;;4.80;4.37;;;24.50;94.80;;;;;;5052211;28;20479;-61
2021/08/21 11:19:40;;;;;;;3.87;3.53;;;24.60;94.50;;;;;;5056175;28;20568;-62
2021/08/21 11:22:20;;;;;;;6.40;5.90;;;24.60;94.60;;;;;;5056266;28;20463;-61
2021/08/21 11:25:01;;;;;;;6.17;5.57;;;24.60;94.40;;;;;;5056183;28;20478;-61
2021/08/21 11:27:37;;;;;;;4.87;4.50;;;24.60;94.20;;;;;;5055850;28;21000;-61
2021/08/21 11:33:11;;;;;;;3.90;3.60;;;24.80;93.90;;;;;;5055854;28;20454;-61
2021/08/21 11:35:48;;;;;;;3.77;3.47;;;24.80;94.30;;;;;;5055949;28;21847;-61
2021/08/21 11:38:18;;;;;;;3.10;2.80;;;24.80;94.10;;;;;;5055662;28;20513;-61
2021/08/21 11:40:47;;;;;;;3.57;3.27;;;24.80;93.40;;;;;;5055930;28;20467;-61
2021/08/21 11:43:15;;;;;;;3.60;3.17;;;24.90;93.60;;;;;;5055684;28;20481;-61
2021/08/21 11:45:42;;;;;;;3.40;3.20;;;24.90;93.60;;;;;;5055579;28;20459;-61
2021/08/21 11:48:10;;;;;;;4.70;4.30;;;25.00;93.70;;;;;;5055454;28;20536;-62
2021/08/21 11:50:39;;;;;;;4.03;3.63;;;25.00;93.90;;;;;;5055118;28;21031;-60
2021/08/21 11:53:07;;;;;;;3.80;3.47;;;25.00;93.40;;;;;;5055581;28;20463;-61
2021/08/21 11:55:38;;;;;;;3.53;3.03;;;25.10;92.70;;;;;;5055167;28;20532;-62
2021/08/21 11:58:06;;;;;;;4.00;3.70;;;25.10;92.90;;;;;;5055633;28;20475;-62
2021/08/21 12:00:35;;;;;;;4.20;3.80;;;25.10;93.00;;;;;;5055183;28;20471;-61
2021/08/21 12:03:04;;;;;;;5.33;4.60;;;25.10;92.90;;;;;;5055497;28;20534;-61
2021/08/21 12:05:33;;;;;;;4.30;3.93;;;25.10;92.70;;;;;;5054900;28;20808;-62
2021/08/21 12:08:13;;;;;;;6.33;4.00;;;25.10;92.30;;;;;;5055508;28;20554;-62
2021/08/21 12:10:46;;;;;;;3.97;3.67;;;25.10;92.30;;;;;;5054919;28;20521;-62
2021/08/21 12:13:14;;;;;;;4.13;3.70;;;25.00;92.50;;;;;;5055330;28;20477;-61
2021/08/21 12:15:41;;;;;;;4.83;4.50;;;25.00;92.70;;;;;;5054761;28;20779;-62
2021/08/21 12:18:09;;;;;;;5.30;4.77;;;25.00;93.10;;;;;;5055264;28;20475;-62
2021/08/21 12:20:37;;;;;;;4.80;4.40;;;25.00;93.50;;;;;;5054748;28;20459;-61
2021/08/21 12:23:05;;;;;;;4.20;3.80;;;25.00;93.60;;;;;;5055194;28;20467;-61
2021/08/21 12:25:48;;;;;;;4.27;3.87;;;25.00;93.80;;;;;;5054694;28;20525;-61
2021/08/21 12:28:16;;;;;;;4.73;3.50;;;25.10;93.60;;;;;;5054558;28;20545;-62
2021/08/21 12:30:54;;;;;;;4.47;4.07;;;25.10;93.00;;;;;;5054348;28;20516;-61
2021/08/21 12:33:26;;;;;;;4.00;3.70;;;25.10;92.90;;;;;;5054709;28;20977;-61
2021/08/21 12:35:53;;;;;;;3.97;3.67;;;25.10;92.70;;;;;;5054961;28;20839;-61
2021/08/21 12:38:20;;;;;;;4.97;4.57;;;25.10;92.60;;;;;;5054652;28;20533;-61
2021/08/21 12:41:10;;;;;;;4.73;4.23;;;25.10;92.90;;;;;;5054490;28;20455;-62
2021/08/21 12:43:39;;;;;;;4.80;4.40;;;25.10;92.90;;;;;;5054094;28;20475;-61
2021/08/21 12:46:16;;;;;;;4.67;4.37;;;25.10;93.00;;;;;;5054763;28;20490;-62
2021/08/21 12:48:43;;;;;;;4.63;3.77;;;25.10;93.00;;;;;;5054363;28;20471;-62
2021/08/21 12:51:10;;;;;;;4.20;3.90;;;25.10;93.00;;;;;;5054633;28;20506;-62